sensor_id;sensor_type;location;lat;lon;timestamp;temperature;humidity
17565;DHT22;62994;52.126;5.596;2023-04-24T00:02:17;11.40;99.90
17565;DHT22;62994;52.126;5.596;2023-04-24T00:04:44;11.30;99.90
17565;DHT22;62994;52.126;5.596;2023-04-24T00:07:12;11.30;99.90
17565;DHT22;62994;52.126;5.596;2023-04-24T00:09:39;11.30;99.90
17565;DHT22;62994;52.126;5.596;2023-04-24T00:12:07;11.30;99.90
17565;DHT22;62994;52.126;5.596;2023-04-24T00:14:34;11.30;99.90
17565;DHT22;62994;52.126;5.596;2023-04-24T00:17:02;11.30;99.90
17565;DHT22;62994;52.126;5.596;2023-04-24T00:19:31;11.30;99.90
17565;DHT22;62994;52.126;5.596;2023-04-24T00:21:58;11.30;99.90
17565;DHT22;62994;52.126;5.596;2023-04-24T00:24:26;11.30;99.90
17565;DHT22;62994;52.126;5.596;2023-04-24T00:26:53;11.40;99.90
17565;DHT22;62994;52.126;5.596;2023-04-24T00:29:20;11.40;99.90
17565;DHT22;62994;52.126;5.596;2023-04-24T00:31:48;11.30;99.90
17565;DHT22;62994;52.126;5.596;2023-04-24T00:34:15;11.30;99.90
17565;DHT22;62994;52.126;5.596;2023-04-24T00:36:43;11.30;99.90
17565;DHT22;62994;52.126;5.596;2023-04-24T00:39:11;11.30;99.90
17565;DHT22;62994;52.126;5.596;2023-04-24T00:41:39;11.30;99.90
17565;DHT22;62994;52.126;5.596;2023-04-24T00:44:06;11.30;99.90
17565;DHT22;62994;52.126;5.596;2023-04-24T00:46:34;11.30;99.90
17565;DHT22;62994;52.126;5.596;2023-04-24T00:49:02;11.20;99.90
17565;DHT22;62994;52.126;5.596;2023-04-24T00:51:29;11.20;99.90
17565;DHT22;62994;52.126;5.596;2023-04-24T00:54:04;11.20;99.90
17565;DHT22;62994;52.126;5.596;2023-04-24T00:56:31;11.30;99.90
17565;DHT22;62994;52.126;5.596;2023-04-24T00:59:00;11.30;99.90
17565;DHT22;62994;52.126;5.596;2023-04-24T01:01:27;11.20;99.90
17565;DHT22;62994;52.126;5.596;2023-04-24T01:03:58;11.20;99.90
17565;DHT22;62994;52.126;5.596;2023-04-24T01:06:28;11.20;99.90
17565;DHT22;62994;52.126;5.596;2023-04-24T01:09:05;11.10;99.90
17565;DHT22;62994;52.126;5.596;2023-04-24T01:11:36;11.20;99.90
17565;DHT22;62994;52.126;5.596;2023-04-24T01:14:09;11.20;99.90
17565;DHT22;62994;52.126;5.596;2023-04-24T01:16:41;11.20;99.90
17565;DHT22;62994;52.126;5.596;2023-04-24T01:19:20;11.20;99.90
17565;DHT22;62994;52.126;5.596;2023-04-24T01:21:51;11.30;99.90
17565;DHT22;62994;52.126;5.596;2023-04-24T01:24:24;11.30;99.90
17565;DHT22;62994;52.126;5.596;2023-04-24T01:26:54;11.30;99.90
17565;DHT22;62994;52.126;5.596;2023-04-24T01:29:26;11.30;99.90
17565;DHT22;62994;52.126;5.596;2023-04-24T01:31:58;11.20;99.90
17565;DHT22;62994;52.126;5.596;2023-04-24T01:34:25;11.30;99.90
17565;DHT22;62994;52.126;5.596;2023-04-24T01:36:52;11.20;99.90
17565;DHT22;62994;52.126;5.596;2023-04-24T01:39:22;11.30;99.90
17565;DHT22;62994;52.126;5.596;2023-04-24T01:41:52;11.30;99.90
17565;DHT22;62994;52.126;5.596;2023-04-24T01:44:19;11.30;99.90
17565;DHT22;62994;52.126;5.596;2023-04-24T01:46:47;11.30;99.90
17565;DHT22;62994;52.126;5.596;2023-04-24T01:49:14;11.30;99.90
17565;DHT22;62994;52.126;5.596;2023-04-24T01:51:46;11.30;99.90
17565;DHT22;62994;52.126;5.596;2023-04-24T01:54:13;11.30;99.90
17565;DHT22;62994;52.126;5.596;2023-04-24T01:56:41;11.20;99.90
17565;DHT22;62994;52.126;5.596;2023-04-24T01:59:15;11.20;99.90
17565;DHT22;62994;52.126;5.596;2023-04-24T02:01:43;11.20;99.90
17565;DHT22;62994;52.126;5.596;2023-04-24T02:04:12;11.20;99.90
17565;DHT22;62994;52.126;5.596;2023-04-24T02:06:40;11.20;99.90
17565;DHT22;62994;52.126;5.596;2023-04-24T02:09:08;11.30;99.90
17565;DHT22;62994;52.126;5.596;2023-04-24T02:11:36;11.30;99.90
17565;DHT22;62994;52.126;5.596;2023-04-24T02:14:10;11.30;99.90
17565;DHT22;62994;52.126;5.596;2023-04-24T02:16:37;11.30;99.90
17565;DHT22;62994;52.126;5.596;2023-04-24T02:19:09;11.30;99.90
17565;DHT22;62994;52.126;5.596;2023-04-24T02:21:41;11.30;99.90
17565;DHT22;62994;52.126;5.596;2023-04-24T02:24:21;11.30;99.90
17565;DHT22;62994;52.126;5.596;2023-04-24T02:26:54;11.20;99.90
17565;DHT22;62994;52.126;5.596;2023-04-24T02:29:23;11.30;99.90
17565;DHT22;62994;52.126;5.596;2023-04-24T02:31:52;11.30;99.90
17565;DHT22;62994;52.126;5.596;2023-04-24T02:34:19;11.20;99.90
17565;DHT22;62994;52.126;5.596;2023-04-24T02:36:51;11.30;99.90
17565;DHT22;62994;52.126;5.596;2023-04-24T02:39:24;11.30;99.90
17565;DHT22;62994;52.126;5.596;2023-04-24T02:41:56;11.30;99.90
17565;DHT22;62994;52.126;5.596;2023-04-24T02:44:24;11.30;99.90
17565;DHT22;62994;52.126;5.596;2023-04-24T02:46:56;11.40;99.90
17565;DHT22;62994;52.126;5.596;2023-04-24T02:49:33;11.30;99.90
17565;DHT22;62994;52.126;5.596;2023-04-24T02:52:06;11.30;99.90
17565;DHT22;62994;52.126;5.596;2023-04-24T02:54:33;11.40;99.90
17565;DHT22;62994;52.126;5.596;2023-04-24T02:57:01;11.40;99.90
17565;DHT22;62994;52.126;5.596;2023-04-24T02:59:30;11.30;99.90
17565;DHT22;62994;52.126;5.596;2023-04-24T03:02:03;11.30;99.90
17565;DHT22;62994;52.126;5.596;2023-04-24T03:04:31;11.40;99.90
17565;DHT22;62994;52.126;5.596;2023-04-24T03:07:05;11.40;99.90
17565;DHT22;62994;52.126;5.596;2023-04-24T03:09:43;11.40;99.90
17565;DHT22;62994;52.126;5.596;2023-04-24T03:12:10;11.40;99.90
17565;DHT22;62994;52.126;5.596;2023-04-24T03:14:38;11.40;99.90
17565;DHT22;62994;52.126;5.596;2023-04-24T03:17:10;11.40;99.90
17565;DHT22;62994;52.126;5.596;2023-04-24T03:19:41;11.30;99.90
17565;DHT22;62994;52.126;5.596;2023-04-24T03:22:08;11.30;99.90
17565;DHT22;62994;52.126;5.596;2023-04-24T03:24:38;11.30;99.90
17565;DHT22;62994;52.126;5.596;2023-04-24T03:27:07;11.30;99.90
17565;DHT22;62994;52.126;5.596;2023-04-24T03:29:34;11.30;99.90
17565;DHT22;62994;52.126;5.596;2023-04-24T03:32:03;11.30;99.90
17565;DHT22;62994;52.126;5.596;2023-04-24T03:34:35;11.30;99.90
17565;DHT22;62994;52.126;5.596;2023-04-24T03:37:03;11.30;99.90
17565;DHT22;62994;52.126;5.596;2023-04-24T03:39:33;11.30;99.90
17565;DHT22;62994;52.126;5.596;2023-04-24T03:42:00;11.30;99.90
17565;DHT22;62994;52.126;5.596;2023-04-24T03:44:33;11.30;99.90
17565;DHT22;62994;52.126;5.596;2023-04-24T03:47:06;11.30;99.90
17565;DHT22;62994;52.126;5.596;2023-04-24T03:49:34;11.30;99.90
17565;DHT22;62994;52.126;5.596;2023-04-24T03:52:01;11.30;99.90
17565;DHT22;62994;52.126;5.596;2023-04-24T03:54:28;11.30;99.90
17565;DHT22;62994;52.126;5.596;2023-04-24T03:56:56;11.30;99.90
17565;DHT22;62994;52.126;5.596;2023-04-24T03:59:28;11.20;99.90
17565;DHT22;62994;52.126;5.596;2023-04-24T04:02:01;11.30;99.90
17565;DHT22;62994;52.126;5.596;2023-04-24T04:04:35;11.30;99.90
17565;DHT22;62994;52.126;5.596;2023-04-24T04:07:07;11.30;99.90
17565;DHT22;62994;52.126;5.596;2023-04-24T04:09:36;11.30;99.90
17565;DHT22;62994;52.126;5.596;2023-04-24T04:12:12;11.30;99.90
17565;DHT22;62994;52.126;5.596;2023-04-24T04:14:45;11.30;99.90
17565;DHT22;62994;52.126;5.596;2023-04-24T04:17:16;11.30;99.90
17565;DHT22;62994;52.126;5.596;2023-04-24T04:19:44;11.20;99.90
17565;DHT22;62994;52.126;5.596;2023-04-24T04:22:16;11.20;99.90
17565;DHT22;62994;52.126;5.596;2023-04-24T04:24:43;11.30;99.90
17565;DHT22;62994;52.126;5.596;2023-04-24T04:27:16;11.30;99.90
17565;DHT22;62994;52.126;5.596;2023-04-24T04:29:44;11.30;99.90
17565;DHT22;62994;52.126;5.596;2023-04-24T04:32:11;11.30;99.90
17565;DHT22;62994;52.126;5.596;2023-04-24T04:34:38;11.30;99.90
17565;DHT22;62994;52.126;5.596;2023-04-24T04:37:06;11.40;99.90
17565;DHT22;62994;52.126;5.596;2023-04-24T04:39:39;11.40;99.90
17565;DHT22;62994;52.126;5.596;2023-04-24T04:42:06;11.40;99.90
17565;DHT22;62994;52.126;5.596;2023-04-24T04:44:38;11.40;99.90
17565;DHT22;62994;52.126;5.596;2023-04-24T04:47:05;11.50;99.90
17565;DHT22;62994;52.126;5.596;2023-04-24T04:49:33;11.50;99.90
17565;DHT22;62994;52.126;5.596;2023-04-24T04:52:00;11.50;99.90
17565;DHT22;62994;52.126;5.596;2023-04-24T04:54:28;11.50;99.90
17565;DHT22;62994;52.126;5.596;2023-04-24T04:56:56;11.60;99.90
17565;DHT22;62994;52.126;5.596;2023-04-24T04:59:23;11.60;99.90
17565;DHT22;62994;52.126;5.596;2023-04-24T05:01:50;11.60;99.90
17565;DHT22;62994;52.126;5.596;2023-04-24T05:04:19;11.60;99.90
17565;DHT22;62994;52.126;5.596;2023-04-24T05:06:47;11.60;99.90
17565;DHT22;62994;52.126;5.596;2023-04-24T05:09:14;11.60;99.90
17565;DHT22;62994;52.126;5.596;2023-04-24T05:11:42;11.60;99.90
17565;DHT22;62994;52.126;5.596;2023-04-24T05:14:09;11.60;99.90
17565;DHT22;62994;52.126;5.596;2023-04-24T05:16:39;11.60;99.90
17565;DHT22;62994;52.126;5.596;2023-04-24T05:19:07;11.60;99.90
17565;DHT22;62994;52.126;5.596;2023-04-24T05:21:34;11.60;99.90
17565;DHT22;62994;52.126;5.596;2023-04-24T05:24:03;11.60;99.90
17565;DHT22;62994;52.126;5.596;2023-04-24T05:26:30;11.60;99.90
17565;DHT22;62994;52.126;5.596;2023-04-24T05:29:08;11.60;99.90
17565;DHT22;62994;52.126;5.596;2023-04-24T05:31:35;11.60;99.90
17565;DHT22;62994;52.126;5.596;2023-04-24T05:34:02;11.60;99.90
17565;DHT22;62994;52.126;5.596;2023-04-24T05:36:29;11.60;99.90
17565;DHT22;62994;52.126;5.596;2023-04-24T05:38:56;11.60;99.90
17565;DHT22;62994;52.126;5.596;2023-04-24T05:41:23;11.50;99.90
17565;DHT22;62994;52.126;5.596;2023-04-24T05:43:50;11.60;99.90
17565;DHT22;62994;52.126;5.596;2023-04-24T05:46:21;11.60;99.90
17565;DHT22;62994;52.126;5.596;2023-04-24T05:48:50;11.60;99.90
17565;DHT22;62994;52.126;5.596;2023-04-24T05:51:17;11.60;99.90
17565;DHT22;62994;52.126;5.596;2023-04-24T05:53:44;11.60;99.90
17565;DHT22;62994;52.126;5.596;2023-04-24T05:56:12;11.60;99.90
17565;DHT22;62994;52.126;5.596;2023-04-24T05:58:45;11.60;99.90
17565;DHT22;62994;52.126;5.596;2023-04-24T06:01:12;11.60;99.90
17565;DHT22;62994;52.126;5.596;2023-04-24T06:03:43;11.60;99.90
17565;DHT22;62994;52.126;5.596;2023-04-24T06:06:10;11.60;99.90
17565;DHT22;62994;52.126;5.596;2023-04-24T06:08:37;11.60;99.90
17565;DHT22;62994;52.126;5.596;2023-04-24T06:11:06;11.60;99.90
17565;DHT22;62994;52.126;5.596;2023-04-24T06:13:38;11.60;99.90
17565;DHT22;62994;52.126;5.596;2023-04-24T06:16:05;11.50;99.90
17565;DHT22;62994;52.126;5.596;2023-04-24T06:18:32;11.50;99.90
17565;DHT22;62994;52.126;5.596;2023-04-24T06:21:03;11.50;99.90
17565;DHT22;62994;52.126;5.596;2023-04-24T06:23:30;11.50;99.90
17565;DHT22;62994;52.126;5.596;2023-04-24T06:25:58;11.50;99.90
17565;DHT22;62994;52.126;5.596;2023-04-24T06:28:25;11.50;99.90
17565;DHT22;62994;52.126;5.596;2023-04-24T06:30:52;11.40;99.90
17565;DHT22;62994;52.126;5.596;2023-04-24T06:33:23;11.40;99.90
17565;DHT22;62994;52.126;5.596;2023-04-24T06:35:50;11.50;99.90
17565;DHT22;62994;52.126;5.596;2023-04-24T06:38:22;11.40;99.90
17565;DHT22;62994;52.126;5.596;2023-04-24T06:40:49;11.40;99.90
17565;DHT22;62994;52.126;5.596;2023-04-24T06:43:16;11.40;99.90
17565;DHT22;62994;52.126;5.596;2023-04-24T06:45:43;11.50;99.90
17565;DHT22;62994;52.126;5.596;2023-04-24T06:48:10;11.40;99.90
17565;DHT22;62994;52.126;5.596;2023-04-24T06:50:38;11.40;99.90
17565;DHT22;62994;52.126;5.596;2023-04-24T06:53:05;11.40;99.90
17565;DHT22;62994;52.126;5.596;2023-04-24T06:55:33;11.40;99.90
17565;DHT22;62994;52.126;5.596;2023-04-24T06:58:00;11.30;99.90
17565;DHT22;62994;52.126;5.596;2023-04-24T07:00:31;11.30;99.90
17565;DHT22;62994;52.126;5.596;2023-04-24T07:02:58;11.20;99.90
17565;DHT22;62994;52.126;5.596;2023-04-24T07:05:27;11.10;99.90
17565;DHT22;62994;52.126;5.596;2023-04-24T07:07:54;11.00;99.90
17565;DHT22;62994;52.126;5.596;2023-04-24T07:10:33;11.00;99.90
17565;DHT22;62994;52.126;5.596;2023-04-24T07:13:01;10.90;99.90
17565;DHT22;62994;52.126;5.596;2023-04-24T07:15:28;10.90;99.90
17565;DHT22;62994;52.126;5.596;2023-04-24T07:17:56;10.80;99.90
17565;DHT22;62994;52.126;5.596;2023-04-24T07:20:33;10.80;99.90
17565;DHT22;62994;52.126;5.596;2023-04-24T07:23:00;10.80;99.90
17565;DHT22;62994;52.126;5.596;2023-04-24T07:25:27;10.80;99.90
17565;DHT22;62994;52.126;5.596;2023-04-24T07:27:59;10.70;99.90
17565;DHT22;62994;52.126;5.596;2023-04-24T07:30:31;10.70;99.90
17565;DHT22;62994;52.126;5.596;2023-04-24T07:33:01;10.70;99.90
17565;DHT22;62994;52.126;5.596;2023-04-24T07:35:28;10.70;99.90
17565;DHT22;62994;52.126;5.596;2023-04-24T07:37:55;10.60;99.90
17565;DHT22;62994;52.126;5.596;2023-04-24T07:40:22;10.60;99.90
17565;DHT22;62994;52.126;5.596;2023-04-24T07:42:49;10.60;99.90
17565;DHT22;62994;52.126;5.596;2023-04-24T07:45:18;10.60;99.90
17565;DHT22;62994;52.126;5.596;2023-04-24T07:47:45;10.60;99.90
17565;DHT22;62994;52.126;5.596;2023-04-24T07:50:12;10.60;99.90
17565;DHT22;62994;52.126;5.596;2023-04-24T07:52:39;10.60;99.90
17565;DHT22;62994;52.126;5.596;2023-04-24T07:55:07;10.50;99.90
17565;DHT22;62994;52.126;5.596;2023-04-24T07:57:34;10.50;99.90
17565;DHT22;62994;52.126;5.596;2023-04-24T08:00:01;10.40;99.90
17565;DHT22;62994;52.126;5.596;2023-04-24T08:02:30;10.40;99.90
17565;DHT22;62994;52.126;5.596;2023-04-24T08:04:57;10.50;99.90
17565;DHT22;62994;52.126;5.596;2023-04-24T08:07:24;10.50;99.90
17565;DHT22;62994;52.126;5.596;2023-04-24T08:09:51;10.50;99.90
17565;DHT22;62994;52.126;5.596;2023-04-24T08:12:18;10.50;99.90
17565;DHT22;62994;52.126;5.596;2023-04-24T08:14:46;10.50;99.90
17565;DHT22;62994;52.126;5.596;2023-04-24T08:17:13;10.60;99.90
17565;DHT22;62994;52.126;5.596;2023-04-24T08:19:41;10.50;99.90
17565;DHT22;62994;52.126;5.596;2023-04-24T08:22:13;10.60;99.90
17565;DHT22;62994;52.126;5.596;2023-04-24T08:24:52;10.50;99.90
17565;DHT22;62994;52.126;5.596;2023-04-24T08:27:19;10.60;99.90
17565;DHT22;62994;52.126;5.596;2023-04-24T08:29:47;10.60;99.90
17565;DHT22;62994;52.126;5.596;2023-04-24T08:32:14;10.60;99.90
17565;DHT22;62994;52.126;5.596;2023-04-24T08:34:43;10.60;99.90
17565;DHT22;62994;52.126;5.596;2023-04-24T08:37:11;10.60;99.90
17565;DHT22;62994;52.126;5.596;2023-04-24T08:39:53;10.60;99.90
17565;DHT22;62994;52.126;5.596;2023-04-24T08:42:21;10.60;99.90
17565;DHT22;62994;52.126;5.596;2023-04-24T08:44:57;10.50;99.90
17565;DHT22;62994;52.126;5.596;2023-04-24T08:47:25;10.50;99.90
17565;DHT22;62994;52.126;5.596;2023-04-24T08:49:56;10.60;99.90
17565;DHT22;62994;52.126;5.596;2023-04-24T08:52:25;10.60;99.90
17565;DHT22;62994;52.126;5.596;2023-04-24T08:54:56;10.50;99.90
17565;DHT22;62994;52.126;5.596;2023-04-24T08:57:25;10.50;99.90
17565;DHT22;62994;52.126;5.596;2023-04-24T08:59:53;10.50;99.90
17565;DHT22;62994;52.126;5.596;2023-04-24T09:02:21;10.40;99.90
17565;DHT22;62994;52.126;5.596;2023-04-24T09:04:49;10.40;99.90
17565;DHT22;62994;52.126;5.596;2023-04-24T09:07:18;10.50;99.90
17565;DHT22;62994;52.126;5.596;2023-04-24T09:09:46;10.50;99.90
17565;DHT22;62994;52.126;5.596;2023-04-24T09:12:14;10.50;99.90
17565;DHT22;62994;52.126;5.596;2023-04-24T09:14:41;10.50;99.90
17565;DHT22;62994;52.126;5.596;2023-04-24T09:17:10;10.50;99.90
17565;DHT22;62994;52.126;5.596;2023-04-24T09:19:37;10.60;99.90
17565;DHT22;62994;52.126;5.596;2023-04-24T09:22:05;10.60;99.90
17565;DHT22;62994;52.126;5.596;2023-04-24T09:24:34;10.60;99.90
17565;DHT22;62994;52.126;5.596;2023-04-24T09:27:01;10.70;99.90
17565;DHT22;62994;52.126;5.596;2023-04-24T09:29:30;10.80;99.90
17565;DHT22;62994;52.126;5.596;2023-04-24T09:31:58;10.90;99.90
17565;DHT22;62994;52.126;5.596;2023-04-24T09:34:26;10.90;99.90
17565;DHT22;62994;52.126;5.596;2023-04-24T09:36:54;10.90;99.90
17565;DHT22;62994;52.126;5.596;2023-04-24T09:39:21;10.80;99.90
17565;DHT22;62994;52.126;5.596;2023-04-24T09:41:51;10.90;99.90
17565;DHT22;62994;52.126;5.596;2023-04-24T09:44:19;10.80;99.90
17565;DHT22;62994;52.126;5.596;2023-04-24T09:46:51;10.80;99.90
17565;DHT22;62994;52.126;5.596;2023-04-24T09:49:25;10.90;99.90
17565;DHT22;62994;52.126;5.596;2023-04-24T09:51:58;10.90;99.90
17565;DHT22;62994;52.126;5.596;2023-04-24T09:54:29;10.90;99.90
17565;DHT22;62994;52.126;5.596;2023-04-24T09:56:58;11.00;99.90
17565;DHT22;62994;52.126;5.596;2023-04-24T09:59:26;11.00;99.90
17565;DHT22;62994;52.126;5.596;2023-04-24T10:01:53;11.00;99.90
17565;DHT22;62994;52.126;5.596;2023-04-24T10:04:26;11.10;99.90
17565;DHT22;62994;52.126;5.596;2023-04-24T10:07:05;11.10;99.90
17565;DHT22;62994;52.126;5.596;2023-04-24T10:09:33;11.20;99.90
17565;DHT22;62994;52.126;5.596;2023-04-24T10:12:02;11.20;99.90
17565;DHT22;62994;52.126;5.596;2023-04-24T10:14:31;11.20;99.90
17565;DHT22;62994;52.126;5.596;2023-04-24T10:17:00;11.20;99.90
17565;DHT22;62994;52.126;5.596;2023-04-24T10:19:30;11.30;99.90
17565;DHT22;62994;52.126;5.596;2023-04-24T10:22:06;11.30;99.90
17565;DHT22;62994;52.126;5.596;2023-04-24T10:24:38;11.40;99.90
17565;DHT22;62994;52.126;5.596;2023-04-24T10:27:08;11.30;99.90
17565;DHT22;62994;52.126;5.596;2023-04-24T10:29:40;11.40;99.90
17565;DHT22;62994;52.126;5.596;2023-04-24T10:32:09;11.40;99.90
17565;DHT22;62994;52.126;5.596;2023-04-24T10:34:37;11.40;99.90
17565;DHT22;62994;52.126;5.596;2023-04-24T10:37:04;11.40;99.90
17565;DHT22;62994;52.126;5.596;2023-04-24T10:39:31;11.40;99.90
17565;DHT22;62994;52.126;5.596;2023-04-24T10:42:15;11.40;99.90
17565;DHT22;62994;52.126;5.596;2023-04-24T10:44:47;11.40;99.90
17565;DHT22;62994;52.126;5.596;2023-04-24T10:47:17;11.40;99.90
17565;DHT22;62994;52.126;5.596;2023-04-24T10:49:44;11.50;99.90
17565;DHT22;62994;52.126;5.596;2023-04-24T10:52:14;11.50;99.90
17565;DHT22;62994;52.126;5.596;2023-04-24T10:54:47;11.60;99.90
17565;DHT22;62994;52.126;5.596;2023-04-24T10:57:28;11.60;99.90
17565;DHT22;62994;52.126;5.596;2023-04-24T11:00:18;11.60;99.90
17565;DHT22;62994;52.126;5.596;2023-04-24T11:02:46;11.70;99.90
17565;DHT22;62994;52.126;5.596;2023-04-24T11:05:21;11.80;99.90
17565;DHT22;62994;52.126;5.596;2023-04-24T11:08:10;11.80;99.90
17565;DHT22;62994;52.126;5.596;2023-04-24T11:10:39;11.80;99.90
17565;DHT22;62994;52.126;5.596;2023-04-24T11:13:14;11.80;99.90
17565;DHT22;62994;52.126;5.596;2023-04-24T11:16:14;11.90;99.90
17565;DHT22;62994;52.126;5.596;2023-04-24T11:18:42;11.80;99.90
17565;DHT22;62994;52.126;5.596;2023-04-24T11:21:17;11.80;99.90
17565;DHT22;62994;52.126;5.596;2023-04-24T11:23:47;11.80;99.90
17565;DHT22;62994;52.126;5.596;2023-04-24T11:26:22;11.80;99.90
17565;DHT22;62994;52.126;5.596;2023-04-24T11:28:54;11.80;99.90
17565;DHT22;62994;52.126;5.596;2023-04-24T11:31:37;11.70;99.90
17565;DHT22;62994;52.126;5.596;2023-04-24T11:34:09;11.70;99.90
17565;DHT22;62994;52.126;5.596;2023-04-24T11:36:43;11.70;99.90
17565;DHT22;62994;52.126;5.596;2023-04-24T11:39:10;11.70;99.90
17565;DHT22;62994;52.126;5.596;2023-04-24T11:41:38;11.70;99.90
17565;DHT22;62994;52.126;5.596;2023-04-24T11:44:08;11.70;99.90
17565;DHT22;62994;52.126;5.596;2023-04-24T11:46:37;11.70;99.90
17565;DHT22;62994;52.126;5.596;2023-04-24T11:49:05;11.70;99.90
17565;DHT22;62994;52.126;5.596;2023-04-24T11:51:37;11.70;99.90
17565;DHT22;62994;52.126;5.596;2023-04-24T11:54:07;11.90;99.90
17565;DHT22;62994;52.126;5.596;2023-04-24T11:56:37;12.00;99.90
17565;DHT22;62994;52.126;5.596;2023-04-24T11:59:04;12.10;99.90
17565;DHT22;62994;52.126;5.596;2023-04-24T12:01:43;12.10;99.90
17565;DHT22;62994;52.126;5.596;2023-04-24T12:04:11;12.20;99.90
17565;DHT22;62994;52.126;5.596;2023-04-24T12:07:01;12.20;99.90
17565;DHT22;62994;52.126;5.596;2023-04-24T12:09:32;12.20;99.90
17565;DHT22;62994;52.126;5.596;2023-04-24T12:12:08;12.30;99.90
17565;DHT22;62994;52.126;5.596;2023-04-24T12:14:45;12.30;99.90
17565;DHT22;62994;52.126;5.596;2023-04-24T12:20:12;12.60;99.90
17565;DHT22;62994;52.126;5.596;2023-04-24T12:22:47;12.70;99.90
17565;DHT22;62994;52.126;5.596;2023-04-24T12:25:35;12.80;99.90
17565;DHT22;62994;52.126;5.596;2023-04-24T12:28:12;12.80;99.90
17565;DHT22;62994;52.126;5.596;2023-04-24T12:30:41;12.80;99.90
17565;DHT22;62994;52.126;5.596;2023-04-24T12:33:17;12.80;99.90
17565;DHT22;62994;52.126;5.596;2023-04-24T12:35:44;12.80;99.90
17565;DHT22;62994;52.126;5.596;2023-04-24T12:38:22;12.80;99.90
17565;DHT22;62994;52.126;5.596;2023-04-24T12:41:02;12.70;99.90
17565;DHT22;62994;52.126;5.596;2023-04-24T12:43:29;12.70;99.90
17565;DHT22;62994;52.126;5.596;2023-04-24T12:46:01;12.70;99.90
17565;DHT22;62994;52.126;5.596;2023-04-24T12:48:38;12.60;99.90
17565;DHT22;62994;52.126;5.596;2023-04-24T12:51:05;12.50;99.90
17565;DHT22;62994;52.126;5.596;2023-04-24T12:53:32;12.50;99.90
17565;DHT22;62994;52.126;5.596;2023-04-24T12:56:03;12.40;99.90
17565;DHT22;62994;52.126;5.596;2023-04-24T12:58:31;12.40;99.90
17565;DHT22;62994;52.126;5.596;2023-04-24T13:00:58;12.40;99.90
17565;DHT22;62994;52.126;5.596;2023-04-24T13:03:26;12.40;99.90
17565;DHT22;62994;52.126;5.596;2023-04-24T13:05:57;12.40;99.90
17565;DHT22;62994;52.126;5.596;2023-04-24T13:08:30;12.50;99.90
17565;DHT22;62994;52.126;5.596;2023-04-24T13:11:06;12.50;99.90
17565;DHT22;62994;52.126;5.596;2023-04-24T13:13:36;12.40;99.90
17565;DHT22;62994;52.126;5.596;2023-04-24T13:16:09;12.40;99.90
17565;DHT22;62994;52.126;5.596;2023-04-24T13:18:41;12.30;99.90
17565;DHT22;62994;52.126;5.596;2023-04-24T13:21:09;12.10;99.90
17565;DHT22;62994;52.126;5.596;2023-04-24T13:23:36;12.20;99.90
17565;DHT22;62994;52.126;5.596;2023-04-24T13:26:03;12.10;99.90
17565;DHT22;62994;52.126;5.596;2023-04-24T13:28:35;12.00;99.90
17565;DHT22;62994;52.126;5.596;2023-04-24T13:31:04;12.00;99.90
17565;DHT22;62994;52.126;5.596;2023-04-24T13:33:31;12.00;99.90
17565;DHT22;62994;52.126;5.596;2023-04-24T13:36:10;12.10;99.90
17565;DHT22;62994;52.126;5.596;2023-04-24T13:38:37;12.10;99.90
17565;DHT22;62994;52.126;5.596;2023-04-24T13:41:04;12.20;99.90
17565;DHT22;62994;52.126;5.596;2023-04-24T13:43:36;12.30;99.90
17565;DHT22;62994;52.126;5.596;2023-04-24T13:46:03;12.40;99.90
17565;DHT22;62994;52.126;5.596;2023-04-24T13:48:30;12.60;99.90
17565;DHT22;62994;52.126;5.596;2023-04-24T13:51:03;12.70;99.90
17565;DHT22;62994;52.126;5.596;2023-04-24T13:53:32;12.90;99.90
17565;DHT22;62994;52.126;5.596;2023-04-24T13:56:06;13.00;99.90
17565;DHT22;62994;52.126;5.596;2023-04-24T13:58:36;13.10;99.90
17565;DHT22;62994;52.126;5.596;2023-04-24T14:01:14;13.10;99.90
17565;DHT22;62994;52.126;5.596;2023-04-24T14:03:44;13.10;99.90
17565;DHT22;62994;52.126;5.596;2023-04-24T14:06:14;13.20;99.90
17565;DHT22;62994;52.126;5.596;2023-04-24T14:08:46;13.20;99.90
17565;DHT22;62994;52.126;5.596;2023-04-24T14:11:20;13.20;99.90
17565;DHT22;62994;52.126;5.596;2023-04-24T14:13:54;13.10;99.90
17565;DHT22;62994;52.126;5.596;2023-04-24T14:16:25;13.00;99.90
17565;DHT22;62994;52.126;5.596;2023-04-24T14:18:52;13.00;99.90
17565;DHT22;62994;52.126;5.596;2023-04-24T14:21:25;13.10;99.90
17565;DHT22;62994;52.126;5.596;2023-04-24T14:23:57;13.30;99.90
17565;DHT22;62994;52.126;5.596;2023-04-24T14:26:39;13.40;99.90
17565;DHT22;62994;52.126;5.596;2023-04-24T14:29:06;13.40;99.90
17565;DHT22;62994;52.126;5.596;2023-04-24T14:31:36;13.40;99.90
17565;DHT22;62994;52.126;5.596;2023-04-24T14:34:03;13.50;99.90
17565;DHT22;62994;52.126;5.596;2023-04-24T14:36:44;13.50;99.90
17565;DHT22;62994;52.126;5.596;2023-04-24T14:39:12;13.40;99.90
17565;DHT22;62994;52.126;5.596;2023-04-24T14:41:41;13.50;99.90
17565;DHT22;62994;52.126;5.596;2023-04-24T14:44:10;13.40;99.90
17565;DHT22;62994;52.126;5.596;2023-04-24T14:46:42;13.30;99.90
17565;DHT22;62994;52.126;5.596;2023-04-24T14:49:10;13.20;99.90
17565;DHT22;62994;52.126;5.596;2023-04-24T14:51:47;13.10;99.90
17565;DHT22;62994;52.126;5.596;2023-04-24T14:54:19;13.10;99.90
17565;DHT22;62994;52.126;5.596;2023-04-24T14:56:48;13.10;99.90
17565;DHT22;62994;52.126;5.596;2023-04-24T14:59:17;13.10;99.90
17565;DHT22;62994;52.126;5.596;2023-04-24T15:01:44;13.00;99.90
17565;DHT22;62994;52.126;5.596;2023-04-24T15:04:11;13.10;99.90
17565;DHT22;62994;52.126;5.596;2023-04-24T15:06:44;13.10;99.90
17565;DHT22;62994;52.126;5.596;2023-04-24T15:09:11;13.10;99.90
17565;DHT22;62994;52.126;5.596;2023-04-24T15:11:40;13.00;99.90
17565;DHT22;62994;52.126;5.596;2023-04-24T15:14:07;13.00;99.90
17565;DHT22;62994;52.126;5.596;2023-04-24T15:16:34;13.00;99.90
17565;DHT22;62994;52.126;5.596;2023-04-24T15:19:06;12.90;99.90
17565;DHT22;62994;52.126;5.596;2023-04-24T15:21:36;12.90;99.90
17565;DHT22;62994;52.126;5.596;2023-04-24T15:24:06;12.90;99.90
17565;DHT22;62994;52.126;5.596;2023-04-24T15:26:36;12.80;99.90
17565;DHT22;62994;52.126;5.596;2023-04-24T15:29:13;12.70;99.90
17565;DHT22;62994;52.126;5.596;2023-04-24T15:31:41;12.60;99.90
17565;DHT22;62994;52.126;5.596;2023-04-24T15:34:12;12.60;99.90
17565;DHT22;62994;52.126;5.596;2023-04-24T15:36:45;12.50;99.90
17565;DHT22;62994;52.126;5.596;2023-04-24T15:39:12;12.60;99.90
17565;DHT22;62994;52.126;5.596;2023-04-24T15:41:40;12.50;99.90
17565;DHT22;62994;52.126;5.596;2023-04-24T15:44:18;12.50;99.90
17565;DHT22;62994;52.126;5.596;2023-04-24T15:46:47;12.50;99.90
17565;DHT22;62994;52.126;5.596;2023-04-24T15:49:19;12.50;99.90
17565;DHT22;62994;52.126;5.596;2023-04-24T15:51:55;12.50;99.90